createdAt,value
2019-05-02T00:01:01.264Z,96560.20
2019-05-02T00:03:35.982Z,96555.44
2019-05-02T00:06:09.322Z,96546.50
2019-05-02T00:08:40.857Z,96550.41
2019-05-02T00:11:13.367Z,96549.16
2019-05-02T00:13:45.360Z,96541.48
2019-05-02T00:16:17.007Z,96542.44
2019-05-02T00:18:48.285Z,96540.28
2019-05-02T00:21:20.328Z,96540.23
2019-05-02T00:23:51.625Z,96540.91
2019-05-02T00:26:24.538Z,96546.73
2019-05-02T00:28:56.356Z,96544.06
2019-05-02T00:31:28.053Z,96547.48
2019-05-02T00:33:59.415Z,96536.77
2019-05-02T00:36:30.772Z,96535.09
2019-05-02T00:39:02.566Z,96530.41
2019-05-02T00:41:38.447Z,96522.27
2019-05-02T00:44:11.074Z,96531.19
2019-05-02T00:46:42.085Z,96520.36
2019-05-02T00:49:13.580Z,96518.87
2019-05-02T00:51:45.016Z,96518.27
2019-05-02T00:54:19.145Z,96521.18
2019-05-02T00:56:49.579Z,96523.20
2019-05-02T00:59:20.878Z,96516.30
2019-05-02T01:02:00.087Z,96518.16
2019-05-02T01:04:36.854Z,96511.41
2019-05-02T01:07:09.224Z,96506.70
2019-05-02T01:09:42.118Z,96507.49
2019-05-02T01:12:25.803Z,96500.64
2019-05-02T01:14:46.583Z,96498.14
2019-05-02T01:17:18.249Z,96501.28
2019-05-02T01:19:51.504Z,96499.17
2019-05-02T01:22:23.042Z,96500.45
2019-05-02T01:24:54.739Z,96492.72
2019-05-02T01:27:41.144Z,96494.34
2019-05-02T01:30:30.260Z,96493.41
2019-05-02T01:33:07.846Z,96492.94
2019-05-02T01:35:50.841Z,96491.66
2019-05-02T01:38:31.801Z,96485.27
2019-05-02T01:41:04.033Z,96485.66
2019-05-02T01:43:35.708Z,96482.08
2019-05-02T01:46:07.160Z,96484.94
2019-05-02T01:48:40.023Z,96483.65
2019-05-02T01:51:12.135Z,96475.90
2019-05-02T01:53:43.526Z,96481.31
2019-05-02T01:56:15.213Z,96469.38
2019-05-02T01:58:47.080Z,96474.95
2019-05-02T02:01:21.391Z,96470.84
2019-05-02T02:03:51.837Z,96470.80
2019-05-02T02:06:23.317Z,96467.82
2019-05-02T02:08:55.067Z,96468.52
2019-05-02T02:11:28.499Z,96467.11
2019-05-02T02:13:59.559Z,96466.33
2019-05-02T02:16:35.228Z,96472.73
2019-05-02T02:19:22.182Z,96481.43
2019-05-02T02:22:23.644Z,96471.12
2019-05-02T02:25:14.301Z,96475.11
2019-05-02T02:27:45.517Z,96468.44
2019-05-02T02:30:17.892Z,96472.86
2019-05-02T02:32:50.376Z,96461.30
2019-05-02T02:35:21.791Z,96466.81
2019-05-02T02:37:55.712Z,96467.55
2019-05-02T02:40:32.785Z,96464.11
2019-05-02T02:43:12.791Z,96460.99
2019-05-02T02:46:09.505Z,96465.54
2019-05-02T02:48:42.671Z,96470.66
2019-05-02T02:51:22.165Z,96465.95
2019-05-02T02:53:47.389Z,96466.27
2019-05-02T02:56:18.882Z,96465.70
2019-05-02T02:58:50.163Z,96459.88
2019-05-02T03:01:28.723Z,96466.68
2019-05-02T03:03:54.902Z,96467.88
2019-05-02T03:06:26.491Z,96463.62
2019-05-02T03:08:57.917Z,96458.11
2019-05-02T03:11:35.124Z,96455.98
2019-05-02T03:14:12.723Z,96451.68
2019-05-02T03:16:47.117Z,96458.05
2019-05-02T03:19:21.089Z,96451.66
2019-05-02T03:21:54.251Z,96460.12
2019-05-02T03:24:27.984Z,96453.25
2019-05-02T03:26:59.396Z,96451.49
2019-05-02T03:29:41.129Z,96447.64
2019-05-02T03:32:14.997Z,96454.73
2019-05-02T03:34:47.547Z,96461.45
2019-05-02T03:37:13.854Z,96453.61
2019-05-02T03:39:49.546Z,96454.91
2019-05-02T03:42:18.058Z,96459.54
2019-05-02T03:44:56.989Z,96458.08
2019-05-02T03:47:23.039Z,96464.84
2019-05-02T03:49:54.478Z,96457.63
2019-05-02T03:52:25.982Z,96450.41
2019-05-02T03:54:57.583Z,96444.61
2019-05-02T03:57:33.387Z,96449.31
2019-05-02T04:00:02.844Z,96445.52
2019-05-02T04:02:35.329Z,96447.27
2019-05-02T04:05:07.018Z,96443.05
2019-05-02T04:07:40.843Z,96448.15
2019-05-02T04:10:20.182Z,96442.31
2019-05-02T04:12:53.238Z,96447.14
2019-05-02T04:15:20.589Z,96444.20
2019-05-02T04:17:54.678Z,96448.03
2019-05-02T04:20:26.294Z,96450.97
2019-05-02T04:23:06.794Z,96448.42
2019-05-02T04:25:38.418Z,96439.59
2019-05-02T04:28:12.055Z,96443.98
2019-05-02T04:30:45.132Z,96448.84
2019-05-02T04:33:16.159Z,96451.49
2019-05-02T04:35:47.595Z,96444.39
2019-05-02T04:38:21.421Z,96448.78
2019-05-02T04:40:52.409Z,96443.38
2019-05-02T04:43:28.592Z,96442.65
2019-05-02T04:46:00.132Z,96447.52
2019-05-02T04:48:34.551Z,96442.78
2019-05-02T04:51:10.285Z,96444.67
2019-05-02T04:53:44.360Z,96449.91
2019-05-02T04:56:12.489Z,96451.27
2019-05-02T04:58:44.300Z,96451.33
2019-05-02T05:01:15.664Z,96448.86
2019-05-02T05:03:49.263Z,96452.81
2019-05-02T05:06:20.170Z,96452.02
2019-05-02T05:08:51.691Z,96456.78
2019-05-02T05:11:24.959Z,96456.05
2019-05-02T05:13:58.992Z,96456.29
2019-05-02T05:16:28.855Z,96456.62
2019-05-02T05:19:00.224Z,96450.43
2019-05-02T05:21:31.535Z,96450.23
2019-05-02T05:24:24.875Z,96449.56
2019-05-02T05:26:57.818Z,96457.84
2019-05-02T05:29:31.164Z,96457.23
2019-05-02T05:32:07.855Z,96453.60
2019-05-02T05:34:37.990Z,96464.39
2019-05-02T05:37:13.434Z,96465.70
2019-05-02T05:39:47.940Z,96459.38
2019-05-02T05:42:17.815Z,96455.22
2019-05-02T05:44:50.560Z,96454.09
2019-05-02T05:47:21.739Z,96457.54
2019-05-02T05:49:57.590Z,96456.73
2019-05-02T05:52:28.269Z,96459.86
2019-05-02T05:55:00.115Z,96461.20
2019-05-02T05:57:31.420Z,96456.54
2019-05-02T06:00:11.938Z,96461.69
2019-05-02T06:02:52.349Z,96458.72
2019-05-02T06:05:10.707Z,96453.98
2019-05-02T06:07:44.947Z,96460.34
2019-05-02T06:10:15.386Z,96453.45
2019-05-02T06:12:47.249Z,96453.48
2019-05-02T06:15:18.797Z,96452.25
2019-05-02T06:17:50.065Z,96454.39
2019-05-02T06:20:25.758Z,96447.41
2019-05-02T06:22:59.549Z,96448.09
2019-05-02T06:25:34.160Z,96448.06
2019-05-02T06:28:05.319Z,96442.48
2019-05-02T06:30:34.319Z,96444.15
2019-05-02T06:33:06.705Z,96442.66
2019-05-02T06:35:38.542Z,96437.95
2019-05-02T06:38:09.838Z,96438.52
2019-05-02T06:40:44.713Z,96441.18
2019-05-02T06:43:15.453Z,96436.23
2019-05-02T06:45:46.951Z,96446.48
2019-05-02T06:48:19.112Z,96438.98
2019-05-02T06:50:51.012Z,96441.61
2019-05-02T06:53:24.013Z,96437.94
2019-05-02T06:55:55.718Z,96443.83
2019-05-02T06:58:27.110Z,96434.12
2019-05-02T07:00:59.172Z,96443.02
2019-05-02T07:03:30.821Z,96436.73
2019-05-02T07:06:02.916Z,96435.09
2019-05-02T07:08:35.739Z,96435.13
2019-05-02T07:11:07.499Z,96430.11
2019-05-02T07:13:41.877Z,96434.07
2019-05-02T07:16:36.883Z,96433.40
2019-05-02T07:19:16.254Z,96436.77
2019-05-02T07:21:46.436Z,96432.27
2019-05-02T07:24:17.797Z,96437.78
2019-05-02T07:26:52.182Z,96433.69
2019-05-02T07:29:23.152Z,96433.33
2019-05-02T07:31:54.712Z,96423.64
2019-05-02T07:34:26.129Z,96429.85
2019-05-02T07:36:57.871Z,96426.39
2019-05-02T07:39:29.545Z,96417.43
2019-05-02T07:42:05.866Z,96418.14
2019-05-02T07:44:34.549Z,96415.22
2019-05-02T07:47:06.068Z,96421.31
2019-05-02T07:49:37.916Z,96414.67
2019-05-02T07:52:09.351Z,96414.88
2019-05-02T07:54:40.707Z,96412.91
2019-05-02T07:57:12.786Z,96431.67
2019-05-02T07:59:44.187Z,96420.17
2019-05-02T08:02:15.658Z,96417.69
2019-05-02T08:04:47.294Z,96418.03
2019-05-02T08:07:21.124Z,96412.06
2019-05-02T08:09:51.997Z,96406.91
2019-05-02T08:12:23.405Z,96410.87
2019-05-02T08:14:54.672Z,96417.75
2019-05-02T08:17:26.184Z,96404.78
2019-05-02T08:19:57.917Z,96413.28
2019-05-02T08:22:29.221Z,96421.59
2019-05-02T08:25:00.881Z,96406.47
2019-05-02T08:27:48.458Z,96418.05
2019-05-02T08:30:24.865Z,96404.88
2019-05-02T08:32:56.396Z,96411.08
2019-05-02T08:35:28.351Z,96410.05
2019-05-02T08:38:00.244Z,96413.84
2019-05-02T08:40:31.902Z,96403.64
2019-05-02T08:43:08.625Z,96405.45
2019-05-02T08:45:38.126Z,96388.31
2019-05-02T08:48:09.720Z,96391.52
2019-05-02T08:50:41.316Z,96393.80
2019-05-02T08:53:14.271Z,96392.90
2019-05-02T08:55:46.743Z,96388.48
2019-05-02T08:58:18.509Z,96387.89
2019-05-02T09:00:50.054Z,96393.36
2019-05-02T09:03:21.554Z,96383.67
2019-05-02T09:06:05.364Z,96383.94
2019-05-02T09:08:28.854Z,96380.61
2019-05-02T09:11:01.511Z,96380.91
2019-05-02T09:13:33.144Z,96372.78
2019-05-02T09:16:06.026Z,96378.68
2019-05-02T09:18:42.384Z,96375.81
2019-05-02T09:21:12.560Z,96365.03
2019-05-02T09:23:44.397Z,96369.51
2019-05-02T09:26:16.493Z,96362.95
2019-05-02T09:28:48.668Z,96370.69
2019-05-02T09:31:22.632Z,96354.95
2019-05-02T09:33:55.687Z,96355.29
2019-05-02T09:36:27.156Z,96350.64
2019-05-02T09:38:58.551Z,96345.67
2019-05-02T09:41:32.486Z,96341.45
2019-05-02T09:44:09.006Z,96339.86
2019-05-02T09:46:38.918Z,96328.97
2019-05-02T09:49:15.763Z,96333.63
2019-05-02T09:51:45.586Z,96332.28
2019-05-02T09:54:23.034Z,96324.28
2019-05-02T09:56:54.535Z,96315.70
2019-05-02T09:59:33.122Z,96315.77
2019-05-02T10:02:08.536Z,96311.41
2019-05-02T10:04:43.494Z,96310.59
2019-05-02T10:07:15.533Z,96306.30
2019-05-02T10:09:46.987Z,96302.52
2019-05-02T10:12:18.502Z,96293.19
2019-05-02T10:14:50.161Z,96285.41
2019-05-02T10:17:23.186Z,96286.42
2019-05-02T10:19:57.109Z,96276.86
2019-05-02T10:22:33.721Z,96274.13
2019-05-02T10:25:02.563Z,96262.34
2019-05-02T10:27:33.975Z,96268.56
2019-05-02T10:30:11.763Z,96266.11
2019-05-02T10:32:39.802Z,96259.73
2019-05-02T10:35:14.768Z,96266.72
2019-05-02T10:37:46.195Z,96275.17
2019-05-02T10:40:17.700Z,96268.97
2019-05-02T10:42:49.006Z,96274.12
2019-05-02T10:45:22.408Z,96271.63
2019-05-02T10:47:53.635Z,96267.53
2019-05-02T10:50:29.435Z,96274.44
2019-05-02T10:53:05.367Z,96268.62
2019-05-02T10:55:33.874Z,96270.17
2019-05-02T10:58:05.891Z,96253.73
2019-05-02T11:00:38.978Z,96251.13
2019-05-02T11:03:16.297Z,96249.09
2019-05-02T11:05:52.862Z,96247.87
2019-05-02T11:08:24.781Z,96239.61
2019-05-02T11:10:57.408Z,96244.02
2019-05-02T11:13:53.359Z,96239.50
2019-05-02T11:16:37.115Z,96240.84
2019-05-02T11:19:14.657Z,96237.97
2019-05-02T11:21:55.337Z,96238.81
2019-05-02T11:24:19.306Z,96235.00
2019-05-02T11:26:52.684Z,96231.16
2019-05-02T11:29:25.310Z,96228.40
2019-05-02T11:31:56.759Z,96237.54
2019-05-02T11:34:28.632Z,96229.45
2019-05-02T11:37:01.747Z,96235.08
2019-05-02T11:39:42.337Z,96231.16
2019-05-02T11:42:06.923Z,96237.55
2019-05-02T11:44:42.207Z,96227.52
2019-05-02T11:47:17.316Z,96224.56
2019-05-02T11:49:52.087Z,96223.97
2019-05-02T11:52:22.556Z,96227.45
2019-05-02T11:54:55.536Z,96212.95
2019-05-02T11:57:30.699Z,96219.19
2019-05-02T12:00:04.937Z,96212.13
2019-05-02T12:02:58.246Z,96212.80
2019-05-02T12:05:35.851Z,96216.76
2019-05-02T12:08:12.201Z,96214.10
2019-05-02T12:10:45.373Z,96214.73
2019-05-02T12:13:17.210Z,96211.79
2019-05-02T12:15:48.476Z,96202.45
2019-05-02T12:18:23.158Z,96198.48
2019-05-02T12:20:54.020Z,96198.63
2019-05-02T12:23:25.304Z,96195.23
2019-05-02T12:25:57.350Z,96190.63
2019-05-02T12:28:32.358Z,96184.00
2019-05-02T12:31:07.979Z,96178.23
2019-05-02T12:33:42.530Z,96178.84
2019-05-02T12:36:14.398Z,96175.77
2019-05-02T12:38:47.034Z,96168.61
2019-05-02T12:41:22.332Z,96173.81
2019-05-02T12:43:52.477Z,96160.98
2019-05-02T12:46:24.176Z,96166.48
2019-05-02T12:48:56.099Z,96169.27
2019-05-02T12:51:27.538Z,96164.15
2019-05-02T12:53:58.989Z,96166.06
2019-05-02T12:56:32.358Z,96168.20
2019-05-02T12:59:05.364Z,96164.28
2019-05-02T13:01:37.276Z,96157.33
2019-05-02T13:04:12.456Z,96150.94
2019-05-02T13:06:43.681Z,96148.09
2019-05-02T13:09:15.096Z,96145.20
2019-05-02T13:12:08.371Z,96143.52
2019-05-02T13:14:39.739Z,96139.02
2019-05-02T13:17:12.143Z,96132.03
2019-05-02T13:19:55.803Z,96126.55
2019-05-02T13:22:34.586Z,96126.05
2019-05-02T13:25:12.934Z,96120.20
2019-05-02T13:27:48.184Z,96124.66
2019-05-02T13:30:42.872Z,96116.33
2019-05-02T13:33:13.715Z,96123.12
2019-05-02T13:35:48.609Z,96110.33
2019-05-02T13:38:22.939Z,96110.11
2019-05-02T13:40:54.662Z,96109.47
2019-05-02T13:43:29.648Z,96114.08
2019-05-02T13:46:14.711Z,96107.20
2019-05-02T13:48:46.249Z,96097.04
2019-05-02T13:51:17.588Z,96098.38
2019-05-02T13:53:57.931Z,96104.11
2019-05-02T13:56:52.796Z,96099.86
2019-05-02T13:59:24.475Z,96094.69
2019-05-02T14:01:55.978Z,96083.39
2019-05-02T14:04:28.498Z,96092.34
2019-05-02T14:07:00.233Z,96092.38
2019-05-02T14:10:02.306Z,96091.77
2019-05-02T14:12:58.128Z,96076.22
2019-05-02T14:15:39.017Z,96071.73
2019-05-02T14:18:12.420Z,96059.17
2019-05-02T14:20:43.940Z,96065.38
2019-05-02T14:23:15.295Z,96068.41
2019-05-02T14:25:47.381Z,96064.72
2019-05-02T14:28:19.015Z,96072.14
2019-05-02T14:30:52.367Z,96060.97
2019-05-02T14:33:25.267Z,96062.45
2019-05-02T14:35:56.944Z,96057.45
2019-05-02T14:38:28.292Z,96049.11
2019-05-02T14:41:08.450Z,96047.80
2019-05-02T14:43:52.581Z,96048.68
2019-05-02T14:46:28.839Z,96047.84
2019-05-02T14:48:59.216Z,96041.12
2019-05-02T14:51:32.688Z,96042.79
2019-05-02T14:54:08.210Z,96042.25
2019-05-02T14:56:48.148Z,96042.20
2019-05-02T14:59:20.223Z,96039.30
2019-05-02T15:01:57.899Z,96040.67
2019-05-02T15:04:28.382Z,96032.80
2019-05-02T15:07:01.912Z,96032.25
2019-05-02T15:09:36.109Z,96034.58
2019-05-02T15:12:13.935Z,96029.36
2019-05-02T15:14:40.029Z,96033.83
2019-05-02T15:17:12.180Z,96027.45
2019-05-02T15:19:43.772Z,96029.25
2019-05-02T15:22:15.135Z,96022.58
2019-05-02T15:24:46.342Z,96032.36
2019-05-02T15:27:18.289Z,96028.66
2019-05-02T15:29:53.938Z,96029.20
2019-05-02T15:32:44.963Z,96025.52
2019-05-02T15:35:31.775Z,96021.03
2019-05-02T15:38:06.732Z,96016.75
2019-05-02T15:40:48.123Z,96019.38
2019-05-02T15:43:09.931Z,96015.34
2019-05-02T15:45:44.150Z,96018.11
2019-05-02T15:48:22.660Z,96020.26
2019-05-02T15:50:52.122Z,96012.00
2019-05-02T15:53:44.669Z,96011.64
2019-05-02T15:56:20.013Z,96014.50
2019-05-02T15:58:49.650Z,96016.03
2019-05-02T16:01:32.166Z,96010.58
2019-05-02T16:04:04.992Z,96011.81
2019-05-02T16:06:36.405Z,96010.77
2019-05-02T16:09:09.494Z,96010.58
2019-05-02T16:11:43.462Z,96010.61
2019-05-02T16:14:15.130Z,96000.39
2019-05-02T16:16:46.409Z,96001.55
2019-05-02T16:19:27.186Z,95999.16
2019-05-02T16:22:08.955Z,95997.92
2019-05-02T16:24:43.875Z,95996.59
2019-05-02T16:27:16.415Z,96001.05
2019-05-02T16:29:47.249Z,96001.02
2019-05-02T16:32:37.889Z,95998.73
2019-05-02T16:35:13.535Z,95998.13
2019-05-02T16:37:46.698Z,95994.85
2019-05-02T16:40:23.830Z,95991.94
2019-05-02T16:42:51.854Z,95985.33
2019-05-02T16:45:23.884Z,95986.95
2019-05-02T16:48:00.328Z,95989.44
2019-05-02T16:50:35.109Z,95986.56
2019-05-02T16:53:02.403Z,95989.12
2019-05-02T16:55:34.078Z,95985.45
2019-05-02T16:58:07.273Z,95982.98
2019-05-02T17:00:42.566Z,95973.80
2019-05-02T17:03:12.729Z,95979.61
2019-05-02T17:05:48.000Z,95976.75
2019-05-02T17:08:27.423Z,95978.83
2019-05-02T17:11:15.806Z,95973.04
2019-05-02T17:13:47.292Z,95975.39
2019-05-02T17:16:18.608Z,95980.15
2019-05-02T17:18:52.977Z,95980.35
2019-05-02T17:21:26.858Z,95982.31
2019-05-02T17:23:56.550Z,95981.80
2019-05-02T17:26:27.899Z,95989.25
2019-05-02T17:28:59.261Z,95984.13
2019-05-02T17:31:32.257Z,95990.19
2019-05-02T17:34:03.672Z,95990.60
2019-05-02T17:36:35.150Z,95992.58
2019-05-02T17:39:08.664Z,96001.19
2019-05-02T17:41:42.260Z,96002.69
2019-05-02T17:44:18.513Z,96006.18
2019-05-02T17:46:50.769Z,96005.50
2019-05-02T17:49:23.918Z,96008.55
2019-05-02T17:52:18.624Z,96000.11
2019-05-02T17:54:44.460Z,96008.45
2019-05-02T17:57:16.133Z,96012.64
2019-05-02T17:59:47.680Z,96012.92
2019-05-02T18:02:19.391Z,96015.36
2019-05-02T18:04:52.143Z,96020.30
2019-05-02T18:07:31.125Z,96023.52
2019-05-02T18:09:57.177Z,96022.69
2019-05-02T18:12:28.602Z,96025.45
2019-05-02T18:15:01.407Z,96020.69
2019-05-02T18:17:33.741Z,96032.87
2019-05-02T18:20:06.740Z,96058.14
2019-05-02T18:22:39.901Z,96060.24
2019-05-02T18:25:16.269Z,96093.82
2019-05-02T18:27:45.468Z,96104.07
2019-05-02T18:30:26.717Z,96111.22
2019-05-02T18:32:57.911Z,96129.59
2019-05-02T18:35:28.434Z,96133.36
2019-05-02T18:38:00.172Z,96152.71
2019-05-02T18:40:32.144Z,96168.77
2019-05-02T18:43:05.332Z,96164.89
2019-05-02T18:45:37.001Z,96160.39
2019-05-02T18:48:08.536Z,96163.05
2019-05-02T18:50:46.946Z,96155.19
2019-05-02T18:53:18.685Z,96140.24
2019-05-02T18:55:51.887Z,96147.28
2019-05-02T18:58:23.694Z,96134.88
2019-05-02T19:00:55.353Z,96131.00
2019-05-02T19:03:27.385Z,96136.57
2019-05-02T19:06:02.143Z,96131.77
2019-05-02T19:08:45.790Z,96132.38
2019-05-02T19:11:12.628Z,96134.67
2019-05-02T19:13:44.559Z,96146.78
2019-05-02T19:16:19.267Z,96142.58
2019-05-02T19:18:54.489Z,96143.41
2019-05-02T19:21:26.435Z,96144.02
2019-05-02T19:23:58.557Z,96151.23
2019-05-02T19:26:30.202Z,96132.16
2019-05-02T19:29:22.136Z,96139.77
2019-05-02T19:31:54.862Z,96140.98
2019-05-02T19:34:26.970Z,96142.66
2019-05-02T19:37:03.091Z,96143.59
2019-05-02T19:39:34.270Z,96145.63
2019-05-02T19:42:06.448Z,96141.75
2019-05-02T19:44:38.396Z,96139.20
2019-05-02T19:47:15.703Z,96144.27
2019-05-02T19:49:47.246Z,96144.73
2019-05-02T19:52:16.182Z,96151.84
2019-05-02T19:54:47.710Z,96144.84
2019-05-02T19:57:24.753Z,96133.20
2019-05-02T19:59:52.505Z,96140.97
2019-05-02T20:02:23.995Z,96129.97
2019-05-02T20:04:55.589Z,96125.70
2019-05-02T20:07:27.185Z,96120.91
2019-05-02T20:09:58.580Z,96130.80
2019-05-02T20:12:30.105Z,96126.48
2019-05-02T20:15:01.988Z,96126.91
2019-05-02T20:17:33.187Z,96132.70
2019-05-02T20:20:07.798Z,96136.19
2019-05-02T20:22:40.973Z,96125.34
2019-05-02T20:25:12.579Z,96119.16
2019-05-02T20:27:44.350Z,96104.53
2019-05-02T20:30:17.262Z,96101.95
2019-05-02T20:32:48.539Z,96104.29
2019-05-02T20:35:19.992Z,96105.80
2019-05-02T20:37:52.569Z,96092.52
2019-05-02T20:40:33.221Z,96089.53
2019-05-02T20:43:05.587Z,96096.97
2019-05-02T20:45:37.020Z,96115.06
2019-05-02T20:48:08.513Z,96120.04
2019-05-02T20:50:40.062Z,96124.94
2019-05-02T20:53:12.831Z,96116.39
2019-05-02T20:55:44.849Z,96115.75
2019-05-02T20:58:16.216Z,96121.52
2019-05-02T21:00:47.886Z,96120.34
2019-05-02T21:03:19.175Z,96125.66
2019-05-02T21:06:36.474Z,96123.87
2019-05-02T21:09:18.656Z,96133.24
2019-05-02T21:12:02.071Z,96140.53
2019-05-02T21:14:35.720Z,96147.07
2019-05-02T21:17:07.381Z,96149.36
2019-05-02T21:19:38.730Z,96148.30
2019-05-02T21:22:19.301Z,96157.38
2019-05-02T21:24:52.694Z,96155.27
2019-05-02T21:27:23.947Z,96154.34
2019-05-02T21:29:55.412Z,96154.95
2019-05-02T21:32:26.877Z,96166.67
2019-05-02T21:34:58.374Z,96165.69
2019-05-02T21:37:31.846Z,96165.66
2019-05-02T21:40:02.995Z,96170.86
2019-05-02T21:42:34.406Z,96176.61
2019-05-02T21:45:06.222Z,96174.97
2019-05-02T21:47:37.764Z,96181.78
2019-05-02T21:50:25.104Z,96179.53
2019-05-02T21:53:18.317Z,96184.24
2019-05-02T21:55:59.654Z,96177.35
2019-05-02T21:58:32.373Z,96183.29
2019-05-02T22:01:09.838Z,96176.61
2019-05-02T22:03:42.305Z,96183.04
2019-05-02T22:06:14.752Z,96186.52
2019-05-02T22:08:46.765Z,96182.98
2019-05-02T22:11:18.152Z,96181.81
2019-05-02T22:13:51.672Z,96187.75
2019-05-02T22:16:23.043Z,96191.28
2019-05-02T22:18:54.699Z,96196.48
2019-05-02T22:21:26.394Z,96195.19
2019-05-02T22:24:08.251Z,96197.20
2019-05-02T22:26:32.741Z,96194.03
2019-05-02T22:29:04.445Z,96201.38
2019-05-02T22:31:35.982Z,96195.78
2019-05-02T22:34:08.228Z,96192.58
2019-05-02T22:36:39.606Z,96192.66
2019-05-02T22:39:31.714Z,96192.26
2019-05-02T22:42:04.697Z,96188.81
2019-05-02T22:44:36.565Z,96188.41
2019-05-02T22:47:08.934Z,96190.22
2019-05-02T22:49:42.287Z,96199.66
2019-05-02T22:52:14.394Z,96195.03
2019-05-02T22:54:46.012Z,96196.78
2019-05-02T22:57:17.423Z,96194.22
2019-05-02T22:59:49.025Z,96198.06
2019-05-02T23:02:21.977Z,96201.11
2019-05-02T23:04:53.616Z,96192.50
2019-05-02T23:07:25.625Z,96197.72
2019-05-02T23:09:57.277Z,96198.20
2019-05-02T23:12:28.625Z,96192.06
2019-05-02T23:15:02.008Z,96193.63
2019-05-02T23:17:33.679Z,96190.67
2019-05-02T23:20:05.950Z,96196.21
2019-05-02T23:22:38.117Z,96193.20
2019-05-02T23:25:42.560Z,96195.70
2019-05-02T23:28:17.798Z,96199.58
2019-05-02T23:30:49.560Z,96193.98
2019-05-02T23:33:23.395Z,96196.39
2019-05-02T23:35:54.149Z,96188.73
2019-05-02T23:38:25.878Z,96193.55
2019-05-02T23:40:57.871Z,96187.00
2019-05-02T23:43:29.293Z,96190.59
2019-05-02T23:46:02.291Z,96191.94
2019-05-02T23:48:33.660Z,96191.45
2019-05-02T23:51:05.091Z,96191.98
2019-05-02T23:53:36.483Z,96186.92
2019-05-02T23:56:08.031Z,96194.30
2019-05-02T23:58:39.488Z,96191.39
